sensor_id;sensor_type;location;lat;lon;timestamp;P1;durP1;ratioP1;P2;durP2;ratioP2
56419;SDS011;42323;52.170;7.538;2022-07-06T17:38:06;3.78;;;0.80;;
56419;SDS011;42323;52.170;7.538;2022-07-06T17:40:32;2.17;;;0.85;;
56419;SDS011;42323;52.170;7.538;2022-07-06T17:43:00;2.10;;;0.80;;
56419;SDS011;42323;52.170;7.538;2022-07-06T17:45:27;2.60;;;0.82;;
56419;SDS011;42323;52.170;7.538;2022-07-06T17:47:54;1.65;;;0.93;;
56419;SDS011;42323;52.170;7.538;2022-07-06T17:50:20;2.53;;;0.90;;
56419;SDS011;42323;52.170;7.538;2022-07-06T17:52:48;3.33;;;0.90;;
56419;SDS011;42323;52.170;7.538;2022-07-06T17:55:14;6.32;;;0.90;;
56419;SDS011;42323;52.170;7.538;2022-07-06T17:57:41;3.50;;;0.93;;
56419;SDS011;42323;52.170;7.538;2022-07-06T18:00:08;1.75;;;0.70;;
56419;SDS011;42323;52.170;7.538;2022-07-06T18:02:36;3.25;;;1.00;;
56419;SDS011;42323;52.170;7.538;2022-07-06T18:05:03;2.05;;;0.80;;
56419;SDS011;42323;52.170;7.538;2022-07-06T18:07:30;3.55;;;1.30;;
56419;SDS011;42323;52.170;7.538;2022-07-06T18:09:57;3.97;;;1.00;;
56419;SDS011;42323;52.170;7.538;2022-07-06T18:12:24;3.53;;;1.00;;
56419;SDS011;42323;52.170;7.538;2022-07-06T18:14:51;2.20;;;1.10;;
56419;SDS011;42323;52.170;7.538;2022-07-06T18:17:18;2.60;;;0.93;;
56419;SDS011;42323;52.170;7.538;2022-07-06T18:19:51;4.70;;;0.90;;
56419;SDS011;42323;52.170;7.538;2022-07-06T18:22:19;0.73;;;0.70;;
56419;SDS011;42323;52.170;7.538;2022-07-06T18:24:46;2.78;;;0.95;;
56419;SDS011;42323;52.170;7.538;2022-07-06T18:27:12;4.82;;;0.90;;
56419;SDS011;42323;52.170;7.538;2022-07-06T18:29:39;6.13;;;1.65;;
56419;SDS011;42323;52.170;7.538;2022-07-06T18:32:06;3.15;;;0.70;;
56419;SDS011;42323;52.170;7.538;2022-07-06T18:34:33;2.90;;;0.90;;
56419;SDS011;42323;52.170;7.538;2022-07-06T18:37:00;1.60;;;0.90;;
56419;SDS011;42323;52.170;7.538;2022-07-06T18:39:27;1.83;;;0.80;;
56419;SDS011;42323;52.170;7.538;2022-07-06T18:41:53;3.10;;;0.90;;
56419;SDS011;42323;52.170;7.538;2022-07-06T18:44:20;3.75;;;0.85;;
56419;SDS011;42323;52.170;7.538;2022-07-06T18:46:47;1.00;;;0.80;;
56419;SDS011;42323;52.170;7.538;2022-07-06T18:49:15;1.50;;;1.10;;
56419;SDS011;42323;52.170;7.538;2022-07-06T18:51:43;6.20;;;1.15;;
56419;SDS011;42323;52.170;7.538;2022-07-06T18:54:10;2.40;;;0.90;;
56419;SDS011;42323;52.170;7.538;2022-07-06T18:56:37;2.20;;;0.95;;
56419;SDS011;42323;52.170;7.538;2022-07-06T18:59:03;1.27;;;0.90;;
56419;SDS011;42323;52.170;7.538;2022-07-06T19:01:30;3.50;;;1.20;;
56419;SDS011;42323;52.170;7.538;2022-07-06T19:03:59;2.35;;;1.10;;
56419;SDS011;42323;52.170;7.538;2022-07-06T19:06:26;3.05;;;1.20;;
56419;SDS011;42323;52.170;7.538;2022-07-06T19:08:52;4.18;;;1.00;;
56419;SDS011;42323;52.170;7.538;2022-07-06T19:11:19;5.82;;;1.45;;
56419;SDS011;42323;52.170;7.538;2022-07-06T19:13:46;3.60;;;1.40;;
56419;SDS011;42323;52.170;7.538;2022-07-06T19:16:13;2.58;;;1.33;;
56419;SDS011;42323;52.170;7.538;2022-07-06T19:18:40;2.00;;;1.20;;
56419;SDS011;42323;52.170;7.538;2022-07-06T19:21:07;2.10;;;1.13;;
56419;SDS011;42323;52.170;7.538;2022-07-06T19:23:34;3.13;;;1.20;;
56419;SDS011;42323;52.170;7.538;2022-07-06T19:26:04;4.68;;;1.38;;
56419;SDS011;42323;52.170;7.538;2022-07-06T19:28:31;2.72;;;1.20;;
56419;SDS011;42323;52.170;7.538;2022-07-06T19:30:58;1.92;;;1.38;;
56419;SDS011;42323;52.170;7.538;2022-07-06T19:33:25;3.08;;;1.17;;
56419;SDS011;42323;52.170;7.538;2022-07-06T19:35:56;2.97;;;1.30;;
56419;SDS011;42323;52.170;7.538;2022-07-06T19:38:23;4.78;;;1.83;;
56419;SDS011;42323;52.170;7.538;2022-07-06T19:40:50;4.05;;;1.40;;
56419;SDS011;42323;52.170;7.538;2022-07-06T19:43:16;3.13;;;1.40;;
56419;SDS011;42323;52.170;7.538;2022-07-06T19:45:44;1.63;;;1.13;;
56419;SDS011;42323;52.170;7.538;2022-07-06T19:48:10;2.08;;;1.52;;
56419;SDS011;42323;52.170;7.538;2022-07-06T19:50:37;3.30;;;1.40;;
56419;SDS011;42323;52.170;7.538;2022-07-06T19:53:04;2.95;;;1.52;;
56419;SDS011;42323;52.170;7.538;2022-07-06T19:55:31;2.03;;;1.38;;
56419;SDS011;42323;52.170;7.538;2022-07-06T19:57:58;2.10;;;1.15;;
56419;SDS011;42323;52.170;7.538;2022-07-06T20:00:25;1.55;;;1.27;;
56419;SDS011;42323;52.170;7.538;2022-07-06T20:02:53;3.42;;;1.63;;
56419;SDS011;42323;52.170;7.538;2022-07-06T20:05:20;7.90;;;2.00;;
56419;SDS011;42323;52.170;7.538;2022-07-06T20:07:46;4.38;;;1.60;;
56419;SDS011;42323;52.170;7.538;2022-07-06T20:10:13;1.90;;;1.20;;
56419;SDS011;42323;52.170;7.538;2022-07-06T20:12:40;2.67;;;1.58;;
56419;SDS011;42323;52.170;7.538;2022-07-06T20:15:07;3.10;;;1.33;;
56419;SDS011;42323;52.170;7.538;2022-07-06T20:17:34;2.45;;;1.42;;
56419;SDS011;42323;52.170;7.538;2022-07-06T20:20:01;3.25;;;1.50;;
56419;SDS011;42323;52.170;7.538;2022-07-06T20:22:28;3.60;;;1.50;;
56419;SDS011;42323;52.170;7.538;2022-07-06T20:24:55;2.58;;;1.55;;
56419;SDS011;42323;52.170;7.538;2022-07-06T20:27:22;2.60;;;1.40;;
56419;SDS011;42323;52.170;7.538;2022-07-06T20:29:50;3.03;;;1.40;;
56419;SDS011;42323;52.170;7.538;2022-07-06T20:32:17;2.65;;;1.50;;
56419;SDS011;42323;52.170;7.538;2022-07-06T20:34:43;4.43;;;1.63;;
56419;SDS011;42323;52.170;7.538;2022-07-06T20:37:10;3.33;;;1.40;;
56419;SDS011;42323;52.170;7.538;2022-07-06T20:39:37;4.63;;;1.40;;
56419;SDS011;42323;52.170;7.538;2022-07-06T20:42:04;2.53;;;1.23;;
56419;SDS011;42323;52.170;7.538;2022-07-06T20:44:31;2.80;;;1.35;;
56419;SDS011;42323;52.170;7.538;2022-07-06T20:46:57;3.55;;;1.27;;
56419;SDS011;42323;52.170;7.538;2022-07-06T20:49:25;2.15;;;1.30;;
56419;SDS011;42323;52.170;7.538;2022-07-06T20:51:51;1.90;;;1.23;;
56419;SDS011;42323;52.170;7.538;2022-07-06T20:54:18;3.97;;;1.10;;
56419;SDS011;42323;52.170;7.538;2022-07-06T20:56:45;3.75;;;1.40;;
56419;SDS011;42323;52.170;7.538;2022-07-06T20:59:12;2.55;;;1.23;;
56419;SDS011;42323;52.170;7.538;2022-07-06T21:01:40;2.60;;;1.42;;
56419;SDS011;42323;52.170;7.538;2022-07-06T21:04:08;2.67;;;1.45;;
56419;SDS011;42323;52.170;7.538;2022-07-06T21:06:35;2.55;;;1.42;;
56419;SDS011;42323;52.170;7.538;2022-07-06T21:09:02;2.28;;;1.45;;
56419;SDS011;42323;52.170;7.538;2022-07-06T21:11:30;3.30;;;2.10;;
56419;SDS011;42323;52.170;7.538;2022-07-06T21:13:57;2.08;;;1.40;;
56419;SDS011;42323;52.170;7.538;2022-07-06T21:16:24;2.00;;;1.20;;
56419;SDS011;42323;52.170;7.538;2022-07-06T21:18:51;1.67;;;1.15;;
56419;SDS011;42323;52.170;7.538;2022-07-06T21:21:18;4.22;;;1.50;;
56419;SDS011;42323;52.170;7.538;2022-07-06T21:23:45;1.85;;;1.30;;
56419;SDS011;42323;52.170;7.538;2022-07-06T21:26:13;2.28;;;1.50;;
56419;SDS011;42323;52.170;7.538;2022-07-06T21:28:40;2.80;;;1.40;;
56419;SDS011;42323;52.170;7.538;2022-07-06T21:31:06;2.03;;;1.23;;
56419;SDS011;42323;52.170;7.538;2022-07-06T21:33:33;2.83;;;1.30;;
56419;SDS011;42323;52.170;7.538;2022-07-06T21:36:00;3.00;;;1.52;;
56419;SDS011;42323;52.170;7.538;2022-07-06T21:38:27;4.97;;;1.60;;
56419;SDS011;42323;52.170;7.538;2022-07-06T21:40:55;4.72;;;2.00;;
56419;SDS011;42323;52.170;7.538;2022-07-06T21:43:22;2.40;;;1.58;;
56419;SDS011;42323;52.170;7.538;2022-07-06T21:45:50;4.78;;;1.77;;
56419;SDS011;42323;52.170;7.538;2022-07-06T21:48:17;2.60;;;1.98;;
56419;SDS011;42323;52.170;7.538;2022-07-06T21:54:10;3.92;;;2.00;;
56419;SDS011;42323;52.170;7.538;2022-07-06T21:56:37;3.10;;;2.47;;
56419;SDS011;42323;52.170;7.538;2022-07-06T21:59:03;3.55;;;2.30;;
56419;SDS011;42323;52.170;7.538;2022-07-06T22:01:30;3.60;;;2.35;;
56419;SDS011;42323;52.170;7.538;2022-07-06T22:03:58;3.60;;;2.28;;
56419;SDS011;42323;52.170;7.538;2022-07-06T22:06:24;3.92;;;2.58;;
56419;SDS011;42323;52.170;7.538;2022-07-06T22:08:51;3.58;;;2.60;;
56419;SDS011;42323;52.170;7.538;2022-07-06T22:11:18;3.40;;;2.70;;
56419;SDS011;42323;52.170;7.538;2022-07-06T22:13:45;3.47;;;2.38;;
56419;SDS011;42323;52.170;7.538;2022-07-06T22:16:16;3.42;;;2.72;;
56419;SDS011;42323;52.170;7.538;2022-07-06T22:18:45;6.32;;;2.80;;
56419;SDS011;42323;52.170;7.538;2022-07-06T22:21:14;6.50;;;2.92;;
56419;SDS011;42323;52.170;7.538;2022-07-06T22:23:42;7.10;;;3.13;;
56419;SDS011;42323;52.170;7.538;2022-07-06T22:26:09;6.03;;;3.22;;
56419;SDS011;42323;52.170;7.538;2022-07-06T22:28:37;5.38;;;2.92;;
56419;SDS011;42323;52.170;7.538;2022-07-06T22:31:04;6.60;;;3.03;;
56419;SDS011;42323;52.170;7.538;2022-07-06T22:33:34;5.30;;;3.10;;
56419;SDS011;42323;52.170;7.538;2022-07-06T22:36:02;5.85;;;2.88;;
56419;SDS011;42323;52.170;7.538;2022-07-06T22:38:30;5.35;;;2.92;;
56419;SDS011;42323;52.170;7.538;2022-07-06T22:40:57;6.30;;;3.47;;
56419;SDS011;42323;52.170;7.538;2022-07-06T22:43:31;5.13;;;3.25;;
56419;SDS011;42323;52.170;7.538;2022-07-06T22:45:58;4.38;;;3.20;;
56419;SDS011;42323;52.170;7.538;2022-07-06T22:48:26;5.70;;;3.25;;
56419;SDS011;42323;52.170;7.538;2022-07-06T22:50:57;5.80;;;3.50;;
56419;SDS011;42323;52.170;7.538;2022-07-06T22:53:25;6.55;;;3.40;;
56419;SDS011;42323;52.170;7.538;2022-07-06T22:55:53;4.05;;;3.65;;
56419;SDS011;42323;52.170;7.538;2022-07-06T22:58:29;9.32;;;3.60;;
56419;SDS011;42323;52.170;7.538;2022-07-06T23:00:56;5.72;;;3.60;;
56419;SDS011;42323;52.170;7.538;2022-07-06T23:03:23;3.97;;;3.38;;
56419;SDS011;42323;52.170;7.538;2022-07-06T23:05:50;6.90;;;3.75;;
56419;SDS011;42323;52.170;7.538;2022-07-06T23:08:17;6.30;;;3.55;;
56419;SDS011;42323;52.170;7.538;2022-07-06T23:10:44;6.35;;;3.47;;
56419;SDS011;42323;52.170;7.538;2022-07-06T23:13:11;4.40;;;3.08;;
56419;SDS011;42323;52.170;7.538;2022-07-06T23:15:37;5.45;;;3.20;;
56419;SDS011;42323;52.170;7.538;2022-07-06T23:18:04;4.97;;;3.10;;
56419;SDS011;42323;52.170;7.538;2022-07-06T23:20:31;4.38;;;3.38;;
56419;SDS011;42323;52.170;7.538;2022-07-06T23:22:58;7.05;;;3.50;;
56419;SDS011;42323;52.170;7.538;2022-07-06T23:25:25;6.50;;;3.53;;
56419;SDS011;42323;52.170;7.538;2022-07-06T23:27:52;6.97;;;3.65;;
56419;SDS011;42323;52.170;7.538;2022-07-06T23:30:19;7.82;;;3.78;;
56419;SDS011;42323;52.170;7.538;2022-07-06T23:32:46;5.65;;;3.00;;
56419;SDS011;42323;52.170;7.538;2022-07-06T23:35:13;5.65;;;3.22;;
56419;SDS011;42323;52.170;7.538;2022-07-06T23:37:42;6.28;;;3.72;;
56419;SDS011;42323;52.170;7.538;2022-07-06T23:40:09;5.72;;;3.65;;
56419;SDS011;42323;52.170;7.538;2022-07-06T23:42:36;6.80;;;3.33;;
56419;SDS011;42323;52.170;7.538;2022-07-06T23:45:03;5.45;;;3.15;;
56419;SDS011;42323;52.170;7.538;2022-07-06T23:47:34;6.80;;;3.58;;
56419;SDS011;42323;52.170;7.538;2022-07-06T23:50:01;8.43;;;3.67;;
56419;SDS011;42323;52.170;7.538;2022-07-06T23:52:28;6.00;;;3.53;;
56419;SDS011;42323;52.170;7.538;2022-07-06T23:54:55;6.20;;;3.83;;
56419;SDS011;42323;52.170;7.538;2022-07-06T23:57:22;6.05;;;4.05;;
56419;SDS011;42323;52.170;7.538;2022-07-06T23:59:49;4.53;;;3.33;;
